• Join FlightAware (Why Join?)
  • Login
  • US Flag 
11:49AM EDT


 

Airport Tracker/Info


-or-


 

Live Flight TrackerFlight Track Log ✈ JBU1134 ✈ 25-Oct-2013 ✈ TJSJ / SJU - KMCO

Flight Track Log - Related Links

Times and Time Zones

All times are in EDT time to prevent confusion due to time zone crossing. See the JBU1134 flight status page for this flight to view local times or setup timezone preferences in your user account.

Time Position Orientation Groundspeed Altitude Reporting Facility
EDT Latitude Longitude Course Direction KTS MPH feet Rate Location/Type
06:25PM 18.4500 -65.9667 310° West 160 184 1,100  Level San Juan Center
06:26PM 18.5000 -66.0000 328° Northwest 210 242 2,200 1,680 Climbing San Juan Center
06:27PM 18.5667 -66.0333 335° Northwest 270 311 4,500 2,640 Climbing San Juan Center
06:28PM 18.7243 -66.3836 317° Northwest  Level Estimated
06:28PM 18.6167 -66.1000 308° West 300 345 7,500  Level San Juan Center
06:29PM 18.7954 -66.4792 317° Northwest  Level Estimated
06:29PM 18.6667 -66.1667 308° West 310 357 10,400  Level San Juan Center
06:30PM 18.8665 -66.5748 305° West  Level Estimated
06:30PM 18.7333 -66.2500 310° West 350 403 11,400  Level San Juan Center
06:31PM 18.9375 -66.6706 310° West  Level Estimated
06:31PM 18.8000 -66.3167 317° Northwest 380 437 13,300  Level San Juan Center
06:32PM 18.8667 -66.4167 305° West 380 437 15,400 2,040 Climbing San Juan Center
06:33PM 18.9500 -66.5000 317° Northwest 400 460 17,400 1,800 Climbing San Juan Center
06:34PM 19.0333 -66.5833 317° Northwest 410 472 19,000 1,560 Climbing San Juan Center
06:35PM 19.1167 -66.6667 317° Northwest 420 483 20,600 1,320 Climbing San Juan Center
06:36PM 19.1833 -66.7500 310° West 420 483 21,700 1,200 Climbing San Juan Center
06:37PM 19.2500 -66.8667 301° West 440 506 23,100 1,260 Climbing San Juan Center
06:38PM 19.3333 -66.9667 311° West 460 529 24,300 1,140 Climbing San Juan Center
06:39PM 19.4167 -67.0667 311° West 450 518 25,500 1,080 Climbing San Juan Center
06:40PM 19.5000 -67.1667 311° West 460 529 26,500 840 Climbing San Juan Center
06:41PM 19.5833 -67.2833 307° West 460 529 27,200 780 Climbing San Juan Center
06:42PM 19.6667 -67.3833 312° West 470 541 28,100 780 Climbing San Juan Center
06:43PM 19.7500 -67.5000 307° West 480 552 28,800 780 Climbing San Juan Center
06:44PM 19.8333 -67.6000 312° West 480 552 29,700 900 Climbing San Juan Center
06:45PM 19.9167 -67.7167 307° West 480 552 30,600 960 Climbing San Juan Center
06:46PM 20.0000 -67.8167 312° West 470 541 31,700 1,020 Climbing San Juan Center
06:47PM 20.0833 -67.9333 307° West 470 541 32,700 840 Climbing San Juan Center
06:48PM 20.1500 -68.0333 305° West 470 541 33,400 720 Climbing San Juan Center
06:49PM 20.2036 -68.1108 306° West 539 620 33,900 900 Climbing Miami Center
06:50PM 20.2822 -68.2161 309° West 496 571 34,800 840 Climbing Miami Center
06:51PM 20.3628 -68.3192 310° West 474 545 35,600 600 Climbing Miami Center
06:52PM 20.4353 -68.4272 306° West 460 529 36,000 180 Climbing Miami Center
06:53PM 20.4839 -68.5525 293° West 454 522 36,000  Level Miami Center
06:54PM 20.5339 -68.6753 294° West 455 524 36,000  Level Miami Center
06:55PM 20.5903 -68.7981 296° West 455 524 36,000  Level Miami Center
06:56PM 20.6528 -68.9181 299° West 455 524 36,000  Level Miami Center
06:57PM 20.7169 -69.0317 301° West 455 524 36,000  Level Miami Center
06:58PM 20.7769 -69.1500 298° West 455 524 36,000  Level Miami Center
06:59PM 20.8411 -69.2661 301° West 455 524 36,000  Level Miami Center
07:00PM 20.9053 -69.3844 300° West 455 524 36,000  Level Miami Center
07:01PM 20.9692 -69.5006 301° West 455 524 36,000  Level Miami Center
07:02PM 21.0286 -69.6150 299° West 450 518 36,000  Level Miami Center
07:03PM 21.0925 -69.7336 300° West 450 518 36,000  Level Miami Center
07:04PM 21.1542 -69.8525 299° West 450 518 36,000  Level Miami Center
07:05PM 21.2181 -69.9717 300° West 450 518 36,000  Level Miami Center
07:06PM 21.2817 -70.0906 300° West 455 524 36,000  Level Miami Center
07:07PM 21.3431 -70.2078 299° West 455 524 36,000  Level Miami Center
07:08PM 21.4064 -70.3247 300° West 455 524 36,000  Level Miami Center
07:09PM 21.4697 -70.4442 300° West 455 524 36,000  Level Miami Center
07:10PM 21.5333 -70.5681 299° West 462 532 36,000  Level Miami Center
07:11PM 21.5967 -70.6856 300° West 462 532 36,000  Level Miami Center
07:12PM 21.6575 -70.8056 299° West 462 532 36,000  Level Miami Center
07:13PM 21.7228 -70.9253 300° West 462 532 36,000  Level Miami Center
07:14PM 21.7858 -71.0453 300° West 462 532 36,000  Level Miami Center
07:15PM 21.8533 -71.1786 299° West 462 532 36,000  Level Miami Center
07:16PM 21.9119 -71.2967 298° West 462 532 36,000  Level Miami Center
07:17PM 21.9725 -71.4150 299° West 456 525 36,000  Level Miami Center
07:18PM 22.0333 -71.5356 299° West 456 525 36,000  Level Miami Center
07:19PM 22.0936 -71.6564 298° West 456 525 36,000  Level Miami Center
07:20PM 22.1539 -71.7706 300° West 451 519 36,000  Level Miami Center
07:21PM 22.2119 -71.8847 299° West 446 513 36,000  Level Miami Center
07:22PM 22.2678 -71.9992 298° West 441 507 36,000  Level Miami Center
07:23PM 22.3258 -72.1114 299° West 431 496 36,000  Level Miami Center
07:24PM 22.3836 -72.2261 299° West 431 496 36,000  Level Miami Center
07:25PM 22.4433 -72.3431 299° West 431 496 36,000  Level Miami Center
07:26PM 22.4989 -72.4581 298° West 431 496 36,000  Level Miami Center
07:27PM 22.5811 -72.5517 314° West 431 496 36,000  Level Miami Center
07:28PM 22.6711 -72.6367 319° Northwest 426 490 36,000  Level Miami Center
07:29PM 22.7611 -72.7236 318° Northwest 432 497 36,000  Level Miami Center
07:30PM 22.8575 -72.8064 322° Northwest 432 497 36,000  Level Miami Center
07:31PM 22.9414 -72.9006 314° West 432 497 36,000  Level Miami Center
07:32PM 23.0111 -73.0111 304° West 438 504 36,000  Level Miami Center
07:33PM 23.0744 -73.1200 302° West 438 504 36,000  Level Miami Center
07:34PM 23.1458 -73.2286 306° West 438 504 36,000  Level Miami Center
07:35PM 23.2111 -73.3350 304° West 438 504 36,000  Level Miami Center
07:36PM 23.2703 -73.4511 299° West 433 498 36,000  Level Miami Center
07:37PM 23.3250 -73.5694 297° West 428 493 36,000  Level Miami Center
07:38PM 23.3778 -73.6903 295° West 434 499 36,000  Level Miami Center
07:39PM 23.4325 -73.8067 297° West 434 499 36,000  Level Miami Center
07:40PM 23.4808 -73.9256 294° West 439 505 36,000  Level Miami Center
07:41PM 23.5331 -74.0397 297° West 439 505 36,000  Level Miami Center
07:42PM 23.5875 -74.1589 297° West 439 505 36,000  Level Miami Center
07:43PM 23.6419 -74.2800 296° West 439 505 36,000  Level Miami Center
07:44PM 23.6942 -74.3969 296° West 439 505 36,000  Level Miami Center
07:45PM 23.7461 -74.5139 296° West 439 505 36,000  Level Miami Center
07:46PM 23.7958 -74.6289 295° West 433 498 36,000  Level Miami Center
07:47PM 23.8456 -74.7417 296° West 427 491 36,000 180 Level Miami Center
07:48PM 23.8975 -74.8567 296° West 421 484 36,400 660 Climbing Miami Center
07:49PM 23.9469 -74.9694 296° West 421 484 37,400 780 Climbing Miami Center
07:50PM 23.9942 -75.0825 295° West 421 484 38,000 300 Climbing Miami Center
07:51PM 24.0417 -75.1933 295° West 416 479 38,000  Level Miami Center
07:52PM 24.0928 -75.3064 296° West 416 479 38,000  Level Miami Center
07:53PM 24.1422 -75.4197 296° West 416 479 38,000  Level Miami Center
07:54PM 24.1892 -75.5331 294° West 416 479 38,000  Level Miami Center
07:55PM 24.2383 -75.6464 295° West 416 479 38,000  Level Miami Center
07:56PM 24.2850 -75.7578 295° West 416 479 38,000  Level Miami Center
07:57PM 24.3339 -75.8714 295° West 416 479 38,000  Level Miami Center
07:58PM 24.3806 -75.9828 295° West 416 479 38,000  Level Miami Center
07:59PM 24.4272 -76.0964 294° West 416 479 38,000  Level Miami Center
08:00PM 24.4758 -76.2081 296° West 416 479 38,000  Level Miami Center
08:01PM 24.5200 -76.3061 296° West 410 472 38,000  Level Miami Center
08:02PM 24.5664 -76.4200 294° West 410 472 38,000  Level Miami Center
08:03PM 24.6147 -76.5319 295° West 410 472 38,000  Level Miami Center
08:04PM 24.6589 -76.6439 293° West 405 466 38,000  Level Miami Center
08:05PM 24.7072 -76.7581 295° West 405 466 38,000  Level Miami Center
08:06PM 24.7531 -76.8681 295° West 394 453 38,000  Level Miami Center
08:07PM 24.7992 -76.9778 295° West 394 453 38,000  Level Miami Center
08:08PM 24.8450 -77.0900 294° West 394 453 38,000  Level Miami Center
08:09PM 24.8908 -77.2025 294° West 394 453 38,000  Level Miami Center
08:10PM 24.9344 -77.3103 294° West 394 453 38,000  Level Miami Center
08:11PM 24.9883 -77.4367 295° West 400 460 38,000  Level Miami Center
08:12PM 25.0336 -77.5539 293° West 405 466 38,000  Level Miami Center
08:13PM 25.0833 -77.6733 295° West 412 474 38,000  Level Miami Center
08:14PM 25.1286 -77.7839 294° West 417 480 38,000  Level Miami Center
08:15PM 25.1758 -77.8967 295° West 407 468 38,000  Level Miami Center
08:16PM 25.2211 -78.0097 294° West 407 468 38,000  Level Miami Center
08:17PM 25.2661 -78.1206 294° West 401 461 38,000  Level Miami Center
08:18PM 25.3131 -78.2336 295° West 395 455 38,000  Level Miami Center
08:19PM 25.3581 -78.3467 294° West 395 455 38,000 -120 Level Miami Center
08:20PM 25.4028 -78.4553 295° West 395 455 37,800 -540 Descending Miami Center
08:21PM 25.4456 -78.5664 293° West 395 455 37,000 -840 Descending Miami Center
08:22PM 25.4903 -78.6775 294° West 395 455 36,200 -840 Descending Miami Center
08:23PM 25.5347 -78.7933 293° West 402 463 35,400 -840 Descending Miami Center
08:24PM 25.5811 -78.9092 294° West 407 468 34,600 -840 Descending Miami Center
08:25PM 25.6317 -79.0231 296° West 412 474 33,800 -840 Descending Miami Center
08:26PM 25.6758 -79.1439 292° West 412 474 33,000 -840 Descending Miami Center
08:27PM 25.7242 -79.2644 294° West 418 481 32,200 -780 Descending Miami Center
08:28PM 25.7722 -79.3925 293° West 429 494 31,500 -900 Descending Miami Center
08:29PM 25.8203 -79.5133 294° West 440 506 30,500 -780 Descending Miami Center
08:30PM 25.8700 -79.6369 294° West 440 506 30,000 -300 Descending Miami Center
08:31PM 25.9139 -79.7489 294° West 440 506 30,000  Level Miami Center
08:32PM 25.9597 -79.8656 294° West 435 501 30,000  Level Miami Center
08:33PM 26.0072 -79.9869 294° West 429 494 30,000  Level Miami Center
08:34PM 26.0528 -80.1036 294° West 423 487 30,000  Level Miami Center
08:35PM 26.1383 -80.1964 316° Northwest 423 487 30,000 -420 Level Miami Center
08:36PM 26.2642 -80.2622 335° Northwest 430 495 29,200 -1,440 Descending Miami Center
08:37PM 26.3736 -80.3189 335° Northwest 430 495 27,200 -2,580 Descending Miami Center
08:38PM 26.4636 -80.4003 321° Northwest 419 482 24,100 -1,620 Descending Miami Center
08:39PM 26.5472 -80.4817 319° Northwest 413 475 24,000 -60 Descending Miami Center
08:40PM 26.6608 -80.5342 338° Northwest 413 475 24,000  Level Miami Center
08:41PM 26.7681 -80.5839 338° Northwest 423 487 24,000  Level Miami Center
08:42PM 26.8672 -80.6289 338° Northwest 428 493 24,000 -240 Level Miami Center
08:43PM 26.9786 -80.6769 339° North 428 493 23,600 -1,140 Descending Miami Center
08:44PM 27.0881 -80.7272 338° Northwest 428 493 21,800 -1,920 Descending Miami Center
08:45PM 27.1953 -80.7750 338° Northwest 428 493 19,800 -1,980 Descending Miami Center
08:46PM 27.2983 -80.8206 339° North 411 473 17,900 -1,500 Descending Miami Center
08:47PM 27.3972 -80.8661 338° Northwest 397 457 16,900 -960 Descending Miami Center
08:48PM 27.4964 -80.9117 338° Northwest 384 442 16,000 -1,620 Descending Miami Center
08:49PM 27.5994 -80.9575 338° Northwest 375 432 13,700 -2,280 Descending Miami Center
08:50PM 27.6919 -81.0006 338° Northwest 363 418 11,500 -1,500 Descending Miami Center
08:51PM 27.7703 -81.0364 338° Northwest 343 395 10,800 -1,020 Descending Miami Center
08:52PM 27.9000 -81.0833 342° North 271 312 9,000 -1,080 Descending Orlando TRACON
08:53PM 27.9667 -81.1167 336° Northwest 268 308 8,100 -660 Descending Orlando TRACON
08:54PM 28.0333 -81.1500 336° Northwest 272 313 7,700 -1,020 Descending Orlando TRACON
08:55PM 28.1000 -81.2000 327° Northwest 268 308 6,100 -1,080 Descending Orlando TRACON
08:56PM 28.1500 -81.2500 319° Northwest 223 257 5,500 -960 Descending Orlando TRACON
08:57PM 28.2000 -81.2833 330° Northwest 208 239 4,200 -1,200 Descending Orlando TRACON
08:58PM 28.2500 -81.3167 330° Northwest 215 247 3,200 -1,020 Descending Orlando TRACON
08:59PM 28.3000 -81.3167 360° North 194 223 2,300 -900 Descending Orlando TRACON
09:00PM 28.3500 -81.3167 360° North 138 159 1,400 -840 Descending Orlando TRACON
09:01PM 28.3833 -81.3167 360° North 117 135 700 -720 Descending Orlando TRACON
09:03PM 28.4294 -81.3090 38° Northeast  Level Estimated